Pacific Titan — WCZ6844 — position and weather

sailwx.info

Track history (hours):
 
Tides and Currents Weather Stations Pressure Air Temp Water Temp Dewpoint Dewpoint Depression Visibility Wind Speed Wind Dir Waves Ship Positions

Pacific Titan

More information available from US FCC via Universal Licensing System and Coast Guard Vessel Documentation Center.

Last reported at 2014-Sep-01 03:33 UTC. Time now 2014-Sep-01 14:04 UTC.
Position N 47°39' W 122°22'.

Type: Tow > 200 m length. MMSI: 338855000.

Date/timePositionNaut miles runAvg speedWind from/ knotsBaromVisibWave heightAir tempDewpointWater temp
2014-Sep-01 03:33N 47°39' W 122°22'1 1.4
2014-Sep-01 02:33N 47°40' W 122°24'2 1.9
2014-Sep-01 01:34N 47°39' W 122°26'7 6.9
2014-Sep-01 00:34N 47°33' W 122°21'3 3.1
2014-Aug-31 23:33N 47°36' W 122°23'8 8.1
2014-Aug-31 22:34N 47°43' W 122°27'9 9.0
2014-Aug-31 21:33N 47°52' W 122°29'8 7.8
2014-Aug-31 20:34N 47°59' W 122°36'8 7.4
2014-Aug-31 19:28N 48°06' W 122°40'7 7.1
2014-Aug-31 18:33N 48°11' W 122°47'9 8.7
2014-Aug-31 17:33N 48°20' W 122°47'9 8.8
2014-Aug-31 16:33N 48°28' W 122°45'8 8.0
2014-Aug-31 15:34N 48°36' W 122°45'7 7.4
2014-Aug-31 14:34N 48°43' W 122°46'9 8.7
2014-Aug-31 13:33N 48°49' W 122°56'9 9.3
2014-Aug-31 12:34N 48°54' W 123°08'9 9.2
2014-Aug-31 11:34N 49°00' W 123°18'10 9.5
2014-Aug-31 10:34N 49°07' W 123°29'10 9.5
2014-Aug-31 09:33N 49°13' W 123°40'1010.0
2014-Aug-31 08:33N 49°19' W 123°52'10 9.8
2014-Aug-31 07:33N 49°26' W 124°03'10 9.9
2014-Aug-31 06:31N 49°32' W 124°16'9 9.5
2014-Aug-31 05:32N 49°36' W 124°29'9 9.4
2014-Aug-31 04:33N 49°42' W 124°39'13 9.3
2014-Aug-31 03:08N 49°51' W 124°55'61 8.7
2014-Aug-30 20:05N 50°28' W 126°10'5 8.8
2014-Aug-30 19:33N 50°29' W 126°17'10 8.5
2014-Aug-30 18:25N 50°30' W 126°32'7 7.4
2014-Aug-30 17:30N 50°34' W 126°41'8 7.9
2014-Aug-30 16:33N 50°39' W 126°50'9 9.2
2014-Aug-30 15:32N 50°43' W 127°03'9 8.9
2014-Aug-30 14:33N 50°49' W 127°13'8 8.4
2014-Aug-30 13:33N 50°54' W 127°23'9 8.8
2014-Aug-30 12:33N 50°59' W 127°35'8 7.8
2014-Aug-30 11:33N 51°05' W 127°43'8 7.3
2014-Aug-30 10:31N 51°11' W 127°51'10 8.4
2014-Aug-30 09:21N 51°21' W 127°54'7 8.0
2014-Aug-30 08:31N 51°27' W 127°51'29 8.4
2014-Aug-30 05:08N 51°55' W 127°56'5 9.0
2014-Aug-30 04:32N 52°01' W 127°56'10 7.4
2014-Aug-30 03:14N 52°07' W 128°08'5 7.0
2014-Aug-30 02:33N 52°12' W 128°06'  
2014-Aug-22 13:28N 51°29' W 128°11'9 9.8
2014-Aug-22 12:33N 51°23' W 127°60'1010.0
2014-Aug-22 11:33N 51°14' W 127°53'1010.0
2014-Aug-22 10:33N 51°06' W 127°45'1010.1
2014-Aug-22 09:33N 50°59' W 127°33'1110.3
2014-Aug-22 08:31N 50°53' W 127°19'1010.0
2014-Aug-22 07:33N 50°48' W 127°06'10 9.6
2014-Aug-22 06:33N 50°42' W 126°54'9 9.2
2014-Aug-22 05:32N 50°36' W 126°43'12 9.2
2014-Aug-22 04:16N 50°30' W 126°27'  
Track history (hours):
 
Tides and Currents Weather Stations Pressure Air Temp Water Temp Dewpoint Dewpoint Depression Visibility Wind Speed Wind Dir Waves Ship Positions

Pacific Titan

More information available from US FCC via Universal Licensing System and Coast Guard Vessel Documentation Center.

Last reported at 2014-Sep-01 03:33 UTC. Time now 2014-Sep-01 14:04 UTC.
Position N 47°39' W 122°22'.

Type: Tow > 200 m length. MMSI: 338855000.

Date/timePositionNaut miles runAvg speedWind from/ knotsBaromVisibWave heightAir tempDewpointWater temp
2014-Sep-01 03:33N 47°39' W 122°22'1 1.4
2014-Sep-01 02:33N 47°40' W 122°24'2 1.9
2014-Sep-01 01:34N 47°39' W 122°26'7 6.9
2014-Sep-01 00:34N 47°33' W 122°21'3 3.1
2014-Aug-31 23:33N 47°36' W 122°23'8 8.1
2014-Aug-31 22:34N 47°43' W 122°27'9 9.0
2014-Aug-31 21:33N 47°52' W 122°29'8 7.8
2014-Aug-31 20:34N 47°59' W 122°36'8 7.4
2014-Aug-31 19:28N 48°06' W 122°40'7 7.1
2014-Aug-31 18:33N 48°11' W 122°47'9 8.7
2014-Aug-31 17:33N 48°20' W 122°47'9 8.8
2014-Aug-31 16:33N 48°28' W 122°45'8 8.0
2014-Aug-31 15:34N 48°36' W 122°45'7 7.4
2014-Aug-31 14:34N 48°43' W 122°46'9 8.7
2014-Aug-31 13:33N 48°49' W 122°56'9 9.3
2014-Aug-31 12:34N 48°54' W 123°08'9 9.2
2014-Aug-31 11:34N 49°00' W 123°18'10 9.5
2014-Aug-31 10:34N 49°07' W 123°29'10 9.5
2014-Aug-31 09:33N 49°13' W 123°40'1010.0
2014-Aug-31 08:33N 49°19' W 123°52'10 9.8
2014-Aug-31 07:33N 49°26' W 124°03'10 9.9
2014-Aug-31 06:31N 49°32' W 124°16'9 9.5
2014-Aug-31 05:32N 49°36' W 124°29'9 9.4
2014-Aug-31 04:33N 49°42' W 124°39'13 9.3
2014-Aug-31 03:08N 49°51' W 124°55'61 8.7
2014-Aug-30 20:05N 50°28' W 126°10'5 8.8
2014-Aug-30 19:33N 50°29' W 126°17'10 8.5
2014-Aug-30 18:25N 50°30' W 126°32'7 7.4
2014-Aug-30 17:30N 50°34' W 126°41'8 7.9
2014-Aug-30 16:33N 50°39' W 126°50'9 9.2
2014-Aug-30 15:32N 50°43' W 127°03'9 8.9
2014-Aug-30 14:33N 50°49' W 127°13'8 8.4
2014-Aug-30 13:33N 50°54' W 127°23'9 8.8
2014-Aug-30 12:33N 50°59' W 127°35'8 7.8
2014-Aug-30 11:33N 51°05' W 127°43'8 7.3
2014-Aug-30 10:31N 51°11' W 127°51'10 8.4
2014-Aug-30 09:21N 51°21' W 127°54'7 8.0
2014-Aug-30 08:31N 51°27' W 127°51'29 8.4
2014-Aug-30 05:08N 51°55' W 127°56'5 9.0
2014-Aug-30 04:32N 52°01' W 127°56'10 7.4
2014-Aug-30 03:14N 52°07' W 128°08'5 7.0
2014-Aug-30 02:33N 52°12' W 128°06'  
2014-Aug-22 13:28N 51°29' W 128°11'9 9.8
2014-Aug-22 12:33N 51°23' W 127°60'1010.0
2014-Aug-22 11:33N 51°14' W 127°53'1010.0
2014-Aug-22 10:33N 51°06' W 127°45'1010.1
2014-Aug-22 09:33N 50°59' W 127°33'1110.3
2014-Aug-22 08:31N 50°53' W 127°19'1010.0
2014-Aug-22 07:33N 50°48' W 127°06'10 9.6
2014-Aug-22 06:33N 50°42' W 126°54'9 9.2
2014-Aug-22 05:32N 50°36' W 126°43'12 9.2
2014-Aug-22 04:16N 50°30' W 126°27'  

Dump ship's entire track history